Girolata — FPOD — position and weather

sailwx.info

Track history (hours):
 
Tides and Currents Weather Stations Pressure Air Temp Water Temp Dewpoint Dewpoint Depression Visibility Wind Speed Wind Dir Waves Ship Positions

Girolata

Last reported at 2018-Feb-25 18:52 UTC. Time now 2018-Feb-26 01:20 UTC.
Position N 43°11' E 005°19'.

Length 177 m; beam 27 m.

Type: Ship (hazmat cat A). MMSI: 226245000.

Date/timePositionNaut miles runAvg speedWind from/ knotsBaromVisibWave heightAir tempDewpointWater temp
2018-Feb-25 18:52N 43°11' E 005°19'514.8
2018-Feb-25 18:30N 43°17' E 005°20'3 4.8
2018-Feb-25 17:59N 43°19' E 005°22'0 0.0
2018-Feb-25 17:29N 43°19' E 005°22'0 0.0
2018-Feb-25 16:41N 43°19' E 005°22'0 0.0
2018-Feb-25 16:29N 43°19' E 005°22'0 0.0
2018-Feb-25 15:53N 43°19' E 005°22'0 0.0
2018-Feb-25 15:23N 43°19' E 005°22'0 0.0
2018-Feb-25 14:56N 43°19' E 005°22'0 0.0
2018-Feb-25 14:29N 43°19' E 005°22'0 0.0
2018-Feb-25 13:53N 43°19' E 005°22'0 0.0
2018-Feb-25 13:14N 43°19' E 005°22'0 0.0
2018-Feb-25 12:56N 43°19' E 005°22'0 0.0
2018-Feb-25 12:26N 43°19' E 005°22'0 0.0
2018-Feb-25 11:56N 43°19' E 005°22'0 0.0
2018-Feb-25 11:29N 43°19' E 005°22'0 0.0
2018-Feb-25 10:53N 43°19' E 005°22'0 0.0
2018-Feb-25 10:29N 43°19' E 005°22'0 0.0
2018-Feb-25 09:59N 43°19' E 005°22'0 0.0
2018-Feb-25 09:26N 43°19' E 005°22'0 0.0
2018-Feb-25 08:59N 43°19' E 005°22'0 0.0
2018-Feb-25 08:29N 43°19' E 005°22'0 0.0
2018-Feb-25 07:59N 43°19' E 005°22'0 0.0
2018-Feb-25 07:29N 43°19' E 005°22'0 0.0
2018-Feb-25 06:56N 43°19' E 005°22'0 0.0
2018-Feb-25 06:30N 43°19' E 005°22'2 4.3
2018-Feb-25 06:00N 43°17' E 005°20'713.3
2018-Feb-25 05:30N 43°10' E 005°18'1 0.0
2018-Feb-23 19:00N 43°12' E 005°19'713.2
2018-Feb-23 18:31N 43°18' E 005°21'1 1.5
2018-Feb-23 17:56N 43°19' E 005°22'0 0.0
2018-Feb-23 17:14N 43°19' E 005°22'0 0.0
2018-Feb-23 16:56N 43°19' E 005°22'0 0.0
2018-Feb-23 16:26N 43°19' E 005°22'0 0.0
2018-Feb-23 15:50N 43°19' E 005°22'0 0.0
2018-Feb-23 15:26N 43°19' E 005°22'0 0.0
2018-Feb-23 14:50N 43°19' E 005°22'0 0.0
2018-Feb-23 14:20N 43°19' E 005°22'0 0.0
2018-Feb-23 13:56N 43°19' E 005°22'0 0.0
2018-Feb-23 13:20N 43°19' E 005°22'0 0.0
2018-Feb-23 12:56N 43°19' E 005°22'0 0.0
2018-Feb-23 11:44N 43°19' E 005°22'0 0.0
2018-Feb-23 11:20N 43°19' E 005°22'0 0.0
2018-Feb-23 10:56N 43°19' E 005°22'0 0.0
2018-Feb-23 09:50N 43°19' E 005°22'0 0.0
2018-Feb-23 09:26N 43°19' E 005°22'0 0.0
2018-Feb-23 08:56N 43°19' E 005°22'0 0.0
2018-Feb-23 08:26N 43°19' E 005°22'0 0.0
2018-Feb-23 07:56N 43°19' E 005°22'0 0.0
2018-Feb-23 07:26N 43°19' E 005°22'0 0.0
2018-Feb-23 06:56N 43°19' E 005°22'0 0.0
2018-Feb-23 06:26N 43°19' E 005°22'0 0.0
2018-Feb-23 05:52N 43°19' E 005°22'0 0.4
2018-Feb-23 05:30N 43°19' E 005°22'510.6
2018-Feb-23 05:00N 43°14' E 005°18'2 0.1
2018-Feb-21 20:48N 43°12' E 005°19'414.1
2018-Feb-21 20:30N 43°16' E 005°20'3 5.0
2018-Feb-21 19:58N 43°19' E 005°22'0 0.0
2018-Feb-21 19:28N 43°19' E 005°22'0 0.0
2018-Feb-21 18:40N 43°19' E 005°22'0 0.0
2018-Feb-21 17:04N 43°19' E 005°22'0 0.0
2018-Feb-21 16:46N 43°19' E 005°22'0 0.0
2018-Feb-21 12:34N 43°19' E 005°22'0 0.0
2018-Feb-21 12:04N 43°19' E 005°22'0 0.0
2018-Feb-21 11:55N 43°19' E 005°22'0 0.0
2018-Feb-21 11:30N 43°19' E 005°22'0 0.0
2018-Feb-21 11:00N 43°19' E 005°22'0 0.0
2018-Feb-21 10:30N 43°19' E 005°22'0 0.0
2018-Feb-21 09:55N 43°19' E 005°22'0 0.0
2018-Feb-21 09:30N 43°19' E 005°22'0 0.0
2018-Feb-21 09:00N 43°19' E 005°22'0 0.0
2018-Feb-21 08:30N 43°19' E 005°22'0 0.0
2018-Feb-21 08:00N 43°19' E 005°22'0 0.0
2018-Feb-21 07:27N 43°19' E 005°22'0 0.0
2018-Feb-21 07:00N 43°19' E 005°22'0 0.0
2018-Feb-21 06:30N 43°19' E 005°22'0 0.0
2018-Feb-21 06:00N 43°19' E 005°22'0 0.2
2018-Feb-21 05:30N 43°19' E 005°22'510.2
2018-Feb-21 05:01N 43°14' E 005°18'3 0.1
2018-Feb-19 19:01N 43°12' E 005°19'117.9
2018-Feb-19 18:59N 43°12' E 005°18'612.5
2018-Feb-19 18:30N 43°18' E 005°21'1 1.6
2018-Feb-19 17:56N 43°19' E 005°22'0 0.0
2018-Feb-19 16:29N 43°19' E 005°22'0 0.0
2018-Feb-19 15:53N 43°19' E 005°22'0 0.0
2018-Feb-19 15:29N 43°19' E 005°22'0 0.0
2018-Feb-19 14:56N 43°19' E 005°22'0 0.0
2018-Feb-19 14:14N 43°19' E 005°22'0 0.0
2018-Feb-19 13:44N 43°19' E 005°22'0 0.0
2018-Feb-19 13:26N 43°19' E 005°22'0 0.0
2018-Feb-19 12:14N 43°19' E 005°22'0 0.0
2018-Feb-19 11:47N 43°19' E 005°22'0 0.0
2018-Feb-19 11:20N 43°19' E 005°22'0 0.0
2018-Feb-19 10:56N 43°19' E 005°22'0 0.0
2018-Feb-19 10:26N 43°19' E 005°22'0 0.0
2018-Feb-19 09:56N 43°19' E 005°22'0 0.0
2018-Feb-19 09:14N 43°19' E 005°22'0 0.0
2018-Feb-19 08:14N 43°19' E 005°22'0 0.0
2018-Feb-19 07:56N 43°19' E 005°22'0 0.0
2018-Feb-19 07:23N 43°19' E 005°22'0 0.0
2018-Feb-19 06:59N 43°19' E 005°22'0 0.0
2018-Feb-19 06:29N 43°19' E 005°22'0 0.0
2018-Feb-19 06:00N 43°19' E 005°22'0 0.3
2018-Feb-19 05:30N 43°19' E 005°22'510.2
2018-Feb-19 05:00N 43°14' E 005°18'3 0.1
2018-Feb-17 18:52N 43°12' E 005°19'412.0
2018-Feb-17 18:30N 43°16' E 005°20'3 6.5
2018-Feb-17 18:00N 43°19' E 005°22'0 0.0
2018-Feb-17 17:28N 43°19' E 005°22'0 0.0
2018-Feb-17 16:52N 43°19' E 005°22'0 0.0
2018-Feb-17 16:28N 43°19' E 005°22'0 0.0
2018-Feb-17 15:58N 43°19' E 005°22'0 0.0
2018-Feb-17 15:28N 43°19' E 005°22'0 0.0
2018-Feb-17 14:58N 43°19' E 005°22'0 0.0
2018-Feb-17 14:28N 43°19' E 005°22'0 0.0
2018-Feb-17 13:58N 43°19' E 005°22'0 0.0
2018-Feb-17 13:28N 43°19' E 005°22'0 0.0
2018-Feb-17 12:58N 43°19' E 005°22'0 0.0
2018-Feb-17 12:28N 43°19' E 005°22'0 0.0
2018-Feb-17 11:58N 43°19' E 005°22'0 0.0
2018-Feb-17 11:28N 43°19' E 005°22'0 0.0
2018-Feb-17 10:58N 43°19' E 005°22'0 0.0
2018-Feb-17 10:28N 43°19' E 005°22'0 0.0
2018-Feb-17 09:46N 43°19' E 005°22'0 0.0
2018-Feb-17 09:10N 43°19' E 005°22'0 0.0
2018-Feb-17 08:58N 43°19' E 005°22'0 0.0
2018-Feb-17 08:28N 43°19' E 005°22'0 0.0
2018-Feb-17 07:58N 43°19' E 005°22'0 0.0
2018-Feb-17 07:28N 43°19' E 005°22'0 0.0
2018-Feb-17 06:58N 43°19' E 005°22'0 0.0
2018-Feb-17 06:22N 43°19' E 005°22'0 0.0
2018-Feb-17 05:55N 43°19' E 005°22'0 0.1
2018-Feb-17 05:30N 43°19' E 005°22'4 8.7
2018-Feb-17 05:01N 43°15' E 005°18'4 0.1
2018-Feb-15 19:20N 43°12' E 005°19'515.0
2018-Feb-15 19:00N 43°17' E 005°20'  
Track history (hours):
 
Tides and Currents Weather Stations Pressure Air Temp Water Temp Dewpoint Dewpoint Depression Visibility Wind Speed Wind Dir Waves Ship Positions

Girolata

Last reported at 2018-Feb-25 18:52 UTC. Time now 2018-Feb-26 01:20 UTC.
Position N 43°11' E 005°19'.

Length 177 m; beam 27 m.

Type: Ship (hazmat cat A). MMSI: 226245000.

Date/timePositionNaut miles runAvg speedWind from/ knotsBaromVisibWave heightAir tempDewpointWater temp
2018-Feb-25 18:52N 43°11' E 005°19'514.8
2018-Feb-25 18:30N 43°17' E 005°20'3 4.8
2018-Feb-25 17:59N 43°19' E 005°22'0 0.0
2018-Feb-25 17:29N 43°19' E 005°22'0 0.0
2018-Feb-25 16:41N 43°19' E 005°22'0 0.0
2018-Feb-25 16:29N 43°19' E 005°22'0 0.0
2018-Feb-25 15:53N 43°19' E 005°22'0 0.0
2018-Feb-25 15:23N 43°19' E 005°22'0 0.0
2018-Feb-25 14:56N 43°19' E 005°22'0 0.0
2018-Feb-25 14:29N 43°19' E 005°22'0 0.0
2018-Feb-25 13:53N 43°19' E 005°22'0 0.0
2018-Feb-25 13:14N 43°19' E 005°22'0 0.0
2018-Feb-25 12:56N 43°19' E 005°22'0 0.0
2018-Feb-25 12:26N 43°19' E 005°22'0 0.0
2018-Feb-25 11:56N 43°19' E 005°22'0 0.0
2018-Feb-25 11:29N 43°19' E 005°22'0 0.0
2018-Feb-25 10:53N 43°19' E 005°22'0 0.0
2018-Feb-25 10:29N 43°19' E 005°22'0 0.0
2018-Feb-25 09:59N 43°19' E 005°22'0 0.0
2018-Feb-25 09:26N 43°19' E 005°22'0 0.0
2018-Feb-25 08:59N 43°19' E 005°22'0 0.0
2018-Feb-25 08:29N 43°19' E 005°22'0 0.0
2018-Feb-25 07:59N 43°19' E 005°22'0 0.0
2018-Feb-25 07:29N 43°19' E 005°22'0 0.0
2018-Feb-25 06:56N 43°19' E 005°22'0 0.0
2018-Feb-25 06:30N 43°19' E 005°22'2 4.3
2018-Feb-25 06:00N 43°17' E 005°20'713.3
2018-Feb-25 05:30N 43°10' E 005°18'1 0.0
2018-Feb-23 19:00N 43°12' E 005°19'713.2
2018-Feb-23 18:31N 43°18' E 005°21'1 1.5
2018-Feb-23 17:56N 43°19' E 005°22'0 0.0
2018-Feb-23 17:14N 43°19' E 005°22'0 0.0
2018-Feb-23 16:56N 43°19' E 005°22'0 0.0
2018-Feb-23 16:26N 43°19' E 005°22'0 0.0
2018-Feb-23 15:50N 43°19' E 005°22'0 0.0
2018-Feb-23 15:26N 43°19' E 005°22'0 0.0
2018-Feb-23 14:50N 43°19' E 005°22'0 0.0
2018-Feb-23 14:20N 43°19' E 005°22'0 0.0
2018-Feb-23 13:56N 43°19' E 005°22'0 0.0
2018-Feb-23 13:20N 43°19' E 005°22'0 0.0
2018-Feb-23 12:56N 43°19' E 005°22'0 0.0
2018-Feb-23 11:44N 43°19' E 005°22'0 0.0
2018-Feb-23 11:20N 43°19' E 005°22'0 0.0
2018-Feb-23 10:56N 43°19' E 005°22'0 0.0
2018-Feb-23 09:50N 43°19' E 005°22'0 0.0
2018-Feb-23 09:26N 43°19' E 005°22'0 0.0
2018-Feb-23 08:56N 43°19' E 005°22'0 0.0
2018-Feb-23 08:26N 43°19' E 005°22'0 0.0
2018-Feb-23 07:56N 43°19' E 005°22'0 0.0
2018-Feb-23 07:26N 43°19' E 005°22'0 0.0
2018-Feb-23 06:56N 43°19' E 005°22'0 0.0
2018-Feb-23 06:26N 43°19' E 005°22'0 0.0
2018-Feb-23 05:52N 43°19' E 005°22'0 0.4
2018-Feb-23 05:30N 43°19' E 005°22'510.6
2018-Feb-23 05:00N 43°14' E 005°18'2 0.1
2018-Feb-21 20:48N 43°12' E 005°19'414.1
2018-Feb-21 20:30N 43°16' E 005°20'3 5.0
2018-Feb-21 19:58N 43°19' E 005°22'0 0.0
2018-Feb-21 19:28N 43°19' E 005°22'0 0.0
2018-Feb-21 18:40N 43°19' E 005°22'0 0.0
2018-Feb-21 17:04N 43°19' E 005°22'0 0.0
2018-Feb-21 16:46N 43°19' E 005°22'0 0.0
2018-Feb-21 12:34N 43°19' E 005°22'0 0.0
2018-Feb-21 12:04N 43°19' E 005°22'0 0.0
2018-Feb-21 11:55N 43°19' E 005°22'0 0.0
2018-Feb-21 11:30N 43°19' E 005°22'0 0.0
2018-Feb-21 11:00N 43°19' E 005°22'0 0.0
2018-Feb-21 10:30N 43°19' E 005°22'0 0.0
2018-Feb-21 09:55N 43°19' E 005°22'0 0.0
2018-Feb-21 09:30N 43°19' E 005°22'0 0.0
2018-Feb-21 09:00N 43°19' E 005°22'0 0.0
2018-Feb-21 08:30N 43°19' E 005°22'0 0.0
2018-Feb-21 08:00N 43°19' E 005°22'0 0.0
2018-Feb-21 07:27N 43°19' E 005°22'0 0.0
2018-Feb-21 07:00N 43°19' E 005°22'0 0.0
2018-Feb-21 06:30N 43°19' E 005°22'0 0.0
2018-Feb-21 06:00N 43°19' E 005°22'0 0.2
2018-Feb-21 05:30N 43°19' E 005°22'510.2
2018-Feb-21 05:01N 43°14' E 005°18'3 0.1
2018-Feb-19 19:01N 43°12' E 005°19'117.9
2018-Feb-19 18:59N 43°12' E 005°18'612.5
2018-Feb-19 18:30N 43°18' E 005°21'1 1.6
2018-Feb-19 17:56N 43°19' E 005°22'0 0.0
2018-Feb-19 16:29N 43°19' E 005°22'0 0.0
2018-Feb-19 15:53N 43°19' E 005°22'0 0.0
2018-Feb-19 15:29N 43°19' E 005°22'0 0.0
2018-Feb-19 14:56N 43°19' E 005°22'0 0.0
2018-Feb-19 14:14N 43°19' E 005°22'0 0.0
2018-Feb-19 13:44N 43°19' E 005°22'0 0.0
2018-Feb-19 13:26N 43°19' E 005°22'0 0.0
2018-Feb-19 12:14N 43°19' E 005°22'0 0.0
2018-Feb-19 11:47N 43°19' E 005°22'0 0.0
2018-Feb-19 11:20N 43°19' E 005°22'0 0.0
2018-Feb-19 10:56N 43°19' E 005°22'0 0.0
2018-Feb-19 10:26N 43°19' E 005°22'0 0.0
2018-Feb-19 09:56N 43°19' E 005°22'0 0.0
2018-Feb-19 09:14N 43°19' E 005°22'0 0.0
2018-Feb-19 08:14N 43°19' E 005°22'0 0.0
2018-Feb-19 07:56N 43°19' E 005°22'0 0.0
2018-Feb-19 07:23N 43°19' E 005°22'0 0.0
2018-Feb-19 06:59N 43°19' E 005°22'0 0.0
2018-Feb-19 06:29N 43°19' E 005°22'0 0.0
2018-Feb-19 06:00N 43°19' E 005°22'0 0.3
2018-Feb-19 05:30N 43°19' E 005°22'510.2
2018-Feb-19 05:00N 43°14' E 005°18'3 0.1
2018-Feb-17 18:52N 43°12' E 005°19'412.0
2018-Feb-17 18:30N 43°16' E 005°20'3 6.5
2018-Feb-17 18:00N 43°19' E 005°22'0 0.0
2018-Feb-17 17:28N 43°19' E 005°22'0 0.0
2018-Feb-17 16:52N 43°19' E 005°22'0 0.0
2018-Feb-17 16:28N 43°19' E 005°22'0 0.0
2018-Feb-17 15:58N 43°19' E 005°22'0 0.0
2018-Feb-17 15:28N 43°19' E 005°22'0 0.0
2018-Feb-17 14:58N 43°19' E 005°22'0 0.0
2018-Feb-17 14:28N 43°19' E 005°22'0 0.0
2018-Feb-17 13:58N 43°19' E 005°22'0 0.0
2018-Feb-17 13:28N 43°19' E 005°22'0 0.0
2018-Feb-17 12:58N 43°19' E 005°22'0 0.0
2018-Feb-17 12:28N 43°19' E 005°22'0 0.0
2018-Feb-17 11:58N 43°19' E 005°22'0 0.0
2018-Feb-17 11:28N 43°19' E 005°22'0 0.0
2018-Feb-17 10:58N 43°19' E 005°22'0 0.0
2018-Feb-17 10:28N 43°19' E 005°22'0 0.0
2018-Feb-17 09:46N 43°19' E 005°22'0 0.0
2018-Feb-17 09:10N 43°19' E 005°22'0 0.0
2018-Feb-17 08:58N 43°19' E 005°22'0 0.0
2018-Feb-17 08:28N 43°19' E 005°22'0 0.0
2018-Feb-17 07:58N 43°19' E 005°22'0 0.0
2018-Feb-17 07:28N 43°19' E 005°22'0 0.0
2018-Feb-17 06:58N 43°19' E 005°22'0 0.0
2018-Feb-17 06:22N 43°19' E 005°22'0 0.0
2018-Feb-17 05:55N 43°19' E 005°22'0 0.1
2018-Feb-17 05:30N 43°19' E 005°22'4 8.7
2018-Feb-17 05:01N 43°15' E 005°18'4 0.1
2018-Feb-15 19:20N 43°12' E 005°19'515.0
2018-Feb-15 19:00N 43°17' E 005°20'  

Dump ship's entire track history